Time;durP1;ratioP1;P1;durP2;ratioP2;P2;SDS_P1;SDS_P2;PMS_P1;PMS_P2;Temp;Humidity;BMP_temperature;BMP_pressure;BME280_temperature;BME280_humidity;BME280_pressure;Samples;Min_cycle;Max_cycle;Signal;HPM_P1;HPM_P2
2022/11/01 00:02:17;;;;;;;8.87;6.43;;;12.30;99.90;11.60;100758;;;;569399;252;24112;-75
2022/11/01 00:04:46;;;;;;;9.70;6.73;;;12.30;99.90;11.60;100755;;;;569320;252;24143;-75
2022/11/01 00:07:14;;;;;;;12.73;7.03;;;12.30;99.90;11.60;100752;;;;569356;252;24110;-75
2022/11/01 00:09:44;;;;;;;12.93;7.70;;;12.20;99.90;11.50;100762;;;;559602;252;24140;-76
2022/11/01 00:12:12;;;;;;;10.73;7.03;;;12.20;99.90;11.50;100758;;;;569535;252;24105;-75
2022/11/01 00:14:41;;;;;;;11.90;6.97;;;12.20;99.90;11.50;100762;;;;568949;252;24205;-76
2022/11/01 00:17:09;;;;;;;9.70;6.03;;;12.10;99.90;11.50;100758;;;;569067;252;24205;-75
2022/11/01 00:19:38;;;;;;;7.37;5.67;;;12.20;99.90;11.50;100752;;;;569385;252;24152;-75
2022/11/01 00:22:07;;;;;;;11.33;5.70;;;12.20;99.90;11.50;100752;;;;559606;252;24111;-75
2022/11/01 00:24:36;;;;;;;9.33;6.47;;;12.20;99.90;11.50;100751;;;;569467;252;24138;-74
2022/11/01 00:27:04;;;;;;;8.23;5.73;;;12.20;99.90;11.50;100752;;;;560552;251;24152;-74
2022/11/01 00:29:32;;;;;;;9.03;5.93;;;12.20;99.90;11.50;100761;;;;570698;251;24200;-74
2022/11/01 00:32:01;;;;;;;9.30;5.17;;;12.20;99.90;11.50;100754;;;;560503;250;24134;-81
2022/11/01 00:34:29;;;;;;;8.77;6.43;;;12.20;99.90;11.50;100759;;;;569988;251;24095;-76
2022/11/01 00:36:58;;;;;;;14.13;7.67;;;12.20;99.90;11.50;100756;;;;569871;249;24185;-77
2022/11/01 00:39:25;;;;;;;10.00;6.33;;;12.20;99.90;11.50;100751;;;;570037;252;24174;-75
2022/11/01 00:41:53;;;;;;;8.63;6.30;;;12.20;99.90;11.40;100748;;;;560102;252;24139;-77
2022/11/01 00:44:21;;;;;;;10.77;6.10;;;12.10;99.90;11.40;100739;;;;561313;252;25241;-76
2022/11/01 00:46:51;;;;;;;9.30;6.03;;;12.10;99.90;11.40;100737;;;;569888;252;24149;-76
2022/11/01 00:49:19;;;;;;;11.63;6.53;;;12.10;99.90;11.40;100730;;;;570212;252;24149;-80
2022/11/01 00:51:46;;;;;;;13.67;7.60;;;12.00;99.90;11.30;100730;;;;570613;252;24129;-77
2022/11/01 00:54:17;;;;;;;11.77;7.17;;;12.00;99.90;11.30;100729;;;;560655;252;24187;-77
2022/11/01 00:56:49;;;;;;;17.73;8.57;;;11.90;99.90;11.30;100733;;;;570598;252;24191;-76
2022/11/01 00:59:13;;;;;;;16.17;8.03;;;11.90;99.90;11.30;100732;;;;562353;252;24155;-82
2022/11/01 01:01:42;;;;;;;14.57;7.23;;;11.90;99.90;11.30;100731;;;;570830;252;24176;-79
2022/11/01 01:04:10;;;;;;;13.53;7.37;;;11.90;99.90;11.20;100729;;;;570619;252;24095;-81
2022/11/01 01:06:38;;;;;;;14.53;7.17;;;11.90;99.90;11.20;100722;;;;570461;252;24110;-82
2022/11/01 01:09:06;;;;;;;14.80;7.93;;;11.90;99.90;11.20;100721;;;;570388;252;24195;-79
2022/11/01 01:11:34;;;;;;;13.93;7.30;;;11.90;99.90;11.20;100715;;;;570634;252;24133;-82
2022/11/01 01:14:02;;;;;;;12.97;7.33;;;11.90;99.90;11.20;100711;;;;570176;250;24223;-80
2022/11/01 01:16:31;;;;;;;20.07;9.40;;;11.90;99.90;11.20;100713;;;;570240;252;24118;-81
2022/11/01 01:19:00;;;;;;;12.13;7.13;;;11.90;99.90;11.20;100708;;;;569496;252;24186;-75
2022/11/01 01:21:27;;;;;;;9.80;6.50;;;11.90;99.90;11.20;100714;;;;569367;252;24182;-75
2022/11/01 01:23:56;;;;;;;11.80;6.47;;;11.80;99.90;11.20;100706;;;;569318;252;24155;-75
2022/11/01 01:26:24;;;;;;;9.10;6.70;;;11.80;99.90;11.20;100709;;;;569445;252;25153;-76
2022/11/01 01:28:55;;;;;;;9.53;5.87;;;11.90;99.90;11.20;100697;;;;569400;252;24128;-75
2022/11/01 01:31:23;;;;;;;13.30;6.40;;;11.90;99.90;11.20;100704;;;;569336;252;24162;-75
2022/11/01 01:33:51;;;;;;;14.20;6.27;;;11.90;99.90;11.20;100702;;;;569458;252;25170;-76
2022/11/01 01:36:22;;;;;;;10.60;5.93;;;11.90;99.90;11.20;100700;;;;569430;252;24103;-75
2022/11/01 01:38:48;;;;;;;12.00;6.10;;;11.90;99.90;11.20;100691;;;;560260;251;24152;-76
2022/11/01 01:44:40;;;;;;;13.50;6.37;;;11.90;99.90;11.20;100689;;;;570455;251;24094;-77
2022/11/01 01:47:08;;;;;;;14.10;6.60;;;11.90;99.90;11.20;100689;;;;560751;251;24164;-75
2022/11/01 01:49:36;;;;;;;8.33;5.73;;;11.90;99.90;11.20;100680;;;;569972;252;24166;-76
2022/11/01 01:52:08;;;;;;;10.80;6.10;;;11.90;99.90;11.20;100673;;;;570845;252;24172;-77
2022/11/01 01:54:33;;;;;;;10.07;5.70;;;11.90;99.90;11.20;100676;;;;562262;252;24161;-84
2022/11/01 01:57:01;;;;;;;8.13;5.23;;;11.90;99.90;11.20;100674;;;;570526;249;24119;-84
2022/11/01 01:59:29;;;;;;;8.03;5.53;;;11.90;99.90;11.20;100680;;;;562024;252;24098;-84
2022/11/01 02:01:57;;;;;;;8.60;5.70;;;11.90;99.90;11.20;100676;;;;570690;250;24183;-77
2022/11/01 02:04:31;;;;;;;9.77;5.47;;;11.90;99.90;11.20;100673;;;;564778;252;24112;-83
2022/11/01 02:06:58;;;;;;;9.43;5.63;;;11.90;99.90;11.20;100672;;;;563209;252;24112;-75
2022/11/01 02:09:23;;;;;;;9.10;5.87;;;11.90;99.90;11.20;100667;;;;563132;251;24148;-75
2022/11/01 02:11:55;;;;;;;7.77;4.33;;;11.90;99.90;11.20;100665;;;;559773;252;24184;-76
2022/11/01 02:14:19;;;;;;;6.90;4.27;;;11.90;99.90;11.20;100669;;;;568974;252;24144;-75
2022/11/01 02:17:14;;;;;;;7.20;4.80;;;11.90;99.90;11.20;100655;;;;569464;252;24106;-75
2022/11/01 02:20:10;;;;;;;7.63;4.63;;;11.90;99.90;11.20;100664;;;;561277;252;24101;-75
2022/11/01 02:23:02;;;;;;;8.27;4.47;;;11.90;99.90;11.20;100655;;;;564501;252;24143;-75
2022/11/01 02:25:54;;;;;;;6.27;4.70;;;11.90;99.90;11.20;100663;;;;561929;252;24118;-79
2022/11/01 02:28:43;;;;;;;5.83;4.20;;;11.90;99.90;11.20;100656;;;;569055;252;24199;-75
2022/11/01 02:32:04;;;;;;;6.57;4.43;;;11.90;99.90;11.20;100661;;;;561460;252;24111;-75
2022/11/01 02:34:59;;;;;;;5.80;3.70;;;11.90;99.90;11.20;100656;;;;569795;252;24137;-75
2022/11/01 02:37:51;;;;;;;6.20;4.07;;;11.90;99.90;11.20;100664;;;;560401;249;24125;-76
2022/11/01 02:40:21;;;;;;;5.20;4.07;;;11.90;99.90;11.20;100663;;;;561009;252;24120;-76
2022/11/01 02:42:49;;;;;;;6.53;4.60;;;11.90;99.90;11.20;100657;;;;560910;252;24124;-75
2022/11/01 02:45:28;;;;;;;5.50;4.03;;;11.90;99.90;11.20;100663;;;;561155;252;24150;-74
2022/11/01 02:47:56;;;;;;;4.47;3.87;;;11.90;99.90;11.20;100669;;;;561104;252;24185;-76
2022/11/01 02:50:30;;;;;;;7.17;4.80;;;11.90;99.90;11.20;100657;;;;561857;251;24114;-75
2022/11/01 02:52:58;;;;;;;5.10;4.37;;;11.90;99.90;11.20;100656;;;;562255;251;24125;-77
2022/11/01 02:55:32;;;;;;;5.83;4.60;;;11.90;99.90;11.20;100661;;;;560308;251;24147;-75
2022/11/01 02:58:05;;;;;;;6.70;3.93;;;11.90;99.90;11.20;100661;;;;563727;251;24166;-74
2022/11/01 03:00:34;;;;;;;4.60;3.97;;;11.90;99.90;11.30;100662;;;;560159;252;24122;-74
2022/11/01 03:03:26;;;;;;;6.67;3.90;;;11.90;99.90;11.20;100667;;;;561336;252;24149;-75
2022/11/01 03:06:00;;;;;;;5.73;4.40;;;11.90;99.90;11.20;100660;;;;561485;252;24130;-76
2022/11/01 03:08:36;;;;;;;7.63;4.47;;;11.90;99.90;11.30;100667;;;;563114;252;24138;-75
2022/11/01 03:11:16;;;;;;;7.27;4.53;;;11.90;99.90;11.30;100665;;;;559549;252;24158;-78
2022/11/01 03:14:08;;;;;;;4.60;4.10;;;12.00;99.90;11.30;100673;;;;570430;252;24121;-79
2022/11/01 03:17:09;;;;;;;5.93;4.17;;;12.00;99.90;11.30;100673;;;;570225;250;24243;-82
2022/11/01 03:19:56;;;;;;;5.33;4.13;;;12.00;99.90;11.30;100672;;;;563674;251;24111;-79
2022/11/01 03:22:42;;;;;;;5.13;3.70;;;12.00;99.90;11.30;100673;;;;561550;252;24130;-78
2022/11/01 03:25:38;;;;;;;4.20;3.70;;;12.00;99.90;11.30;100670;;;;562493;252;24176;-79
2022/11/01 03:28:13;;;;;;;5.93;3.70;;;12.00;99.90;11.30;100670;;;;563318;252;24108;-75
2022/11/01 03:30:43;;;;;;;7.60;4.03;;;12.00;99.90;11.30;100679;;;;560604;252;24131;-75
2022/11/01 03:33:10;;;;;;;5.50;4.03;;;12.00;99.90;11.30;100681;;;;560494;252;24158;-76
2022/11/01 03:35:40;;;;;;;5.80;4.10;;;12.00;99.90;11.30;100679;;;;560718;252;24170;-75
2022/11/01 03:38:07;;;;;;;6.63;4.13;;;12.00;99.90;11.30;100672;;;;561415;252;24112;-76
2022/11/01 03:40:41;;;;;;;4.40;3.50;;;12.00;99.90;11.20;100684;;;;563129;251;24115;-76
2022/11/01 03:43:04;;;;;;;5.77;3.53;;;11.90;99.90;11.20;100670;;;;569617;252;24091;-77
2022/11/01 03:45:34;;;;;;;4.60;3.47;;;11.90;99.90;11.20;100670;;;;561922;252;24128;-80
2022/11/01 03:48:05;;;;;;;5.10;4.07;;;11.90;99.90;11.30;100669;;;;561755;251;24138;-79
2022/11/01 03:50:30;;;;;;;6.50;4.33;;;11.90;99.90;11.20;100669;;;;569653;250;24121;-79
2022/11/01 03:53:00;;;;;;;5.50;4.10;;;11.90;99.90;11.20;100666;;;;563960;252;24156;-79
2022/11/01 03:55:25;;;;;;;4.83;4.30;;;11.90;99.90;11.20;100656;;;;568889;251;24182;-75
2022/11/01 03:57:59;;;;;;;4.07;3.57;;;11.90;99.90;11.20;100661;;;;563297;252;24127;-76
2022/11/01 04:00:28;;;;;;;8.93;4.50;;;11.90;99.90;11.20;100665;;;;559768;252;24130;-78
2022/11/01 04:03:00;;;;;;;5.37;3.93;;;11.90;99.90;11.20;100654;;;;565223;251;24142;-76
2022/11/01 04:05:25;;;;;;;5.77;3.73;;;11.90;99.90;11.20;100651;;;;561728;251;24137;-78
2022/11/01 04:07:53;;;;;;;6.30;3.90;;;11.90;99.90;11.20;100652;;;;561682;251;24180;-74
2022/11/01 04:10:21;;;;;;;9.33;3.90;;;11.90;99.90;11.20;100638;;;;563913;251;24110;-76
2022/11/01 04:12:52;;;;;;;6.67;4.80;;;11.90;99.90;11.20;100648;;;;562313;252;24223;-77
2022/11/01 04:20:59;;;;;;;3.83;3.53;;;11.90;99.90;11.20;100635;;;;563899;252;24110;-74
2022/11/01 04:23:24;;;;;;;6.63;3.93;;;11.90;99.90;11.20;100626;;;;564151;252;24155;-77
2022/11/01 04:25:54;;;;;;;5.93;4.20;;;11.90;99.90;11.20;100619;;;;563541;252;24135;-81
2022/11/01 04:28:22;;;;;;;6.10;3.97;;;11.90;99.90;11.20;100610;;;;563109;252;24142;-74
2022/11/01 04:30:53;;;;;;;5.97;4.43;;;11.90;99.90;11.20;100618;;;;563208;252;24104;-74
2022/11/01 04:33:19;;;;;;;8.13;4.33;;;11.90;99.90;11.20;100622;;;;560699;251;24116;-74
2022/11/01 04:35:52;;;;;;;10.17;4.57;;;11.90;99.90;11.20;100622;;;;562754;252;24106;-75
2022/11/01 04:38:18;;;;;;;9.03;4.43;;;11.90;99.90;11.20;100619;;;;563603;252;24170;-75
2022/11/01 04:40:46;;;;;;;7.47;4.23;;;11.80;99.90;11.20;100613;;;;562607;252;24193;-75
2022/11/01 04:43:14;;;;;;;7.17;4.40;;;11.80;99.90;11.10;100614;;;;562565;252;24153;-76
2022/11/01 04:45:42;;;;;;;7.53;4.30;;;11.80;99.90;11.10;100613;;;;568643;251;24155;-75
2022/11/01 04:48:16;;;;;;;6.67;4.70;;;11.80;99.90;11.10;100617;;;;562608;252;24133;-75
2022/11/01 04:50:44;;;;;;;11.40;4.70;;;11.80;99.90;11.10;100615;;;;562527;252;24116;-75
2022/11/01 04:53:10;;;;;;;7.37;4.97;;;11.80;99.90;11.10;100614;;;;560075;252;24166;-75
2022/11/01 04:55:38;;;;;;;7.43;4.50;;;11.90;99.90;11.20;100608;;;;562345;252;24129;-75
2022/11/01 04:58:09;;;;;;;4.87;4.30;;;11.90;99.90;11.20;100601;;;;562527;252;24144;-75
2022/11/01 05:00:37;;;;;;;7.30;4.20;;;11.90;99.90;11.20;100602;;;;560222;252;24142;-75
2022/11/01 05:03:06;;;;;;;8.93;4.27;;;11.90;99.90;11.20;100602;;;;560430;252;24131;-75
2022/11/01 05:05:39;;;;;;;7.87;3.97;;;11.90;99.90;11.20;100596;;;;560729;252;24126;-75
2022/11/01 05:08:06;;;;;;;9.67;4.60;;;11.90;99.90;11.20;100599;;;;562539;252;24142;-76
2022/11/01 05:10:37;;;;;;;7.70;4.67;;;11.90;99.90;11.20;100595;;;;562252;252;24103;-75
2022/11/01 05:13:03;;;;;;;11.27;4.93;;;11.90;99.90;11.20;100579;;;;558275;250;24141;-75
2022/11/01 05:15:30;;;;;;;8.23;4.57;;;11.90;99.90;11.20;100575;;;;562002;251;24258;-76
2022/11/01 05:17:58;;;;;;;7.37;4.57;;;11.90;99.90;11.20;100575;;;;565455;250;24103;-80
2022/11/01 05:20:27;;;;;;;9.30;5.20;;;12.00;99.90;11.20;100578;;;;566124;251;24115;-78
2022/11/01 05:22:58;;;;;;;9.67;5.07;;;12.00;99.90;11.20;100568;;;;562670;252;24102;-79
2022/11/01 05:25:26;;;;;;;6.10;5.33;;;11.90;99.90;11.20;100563;;;;564339;252;24201;-80
2022/11/01 05:28:04;;;;;;;10.83;5.83;;;11.90;99.90;11.20;100560;;;;560467;253;24142;-82
2022/11/01 05:30:30;;;;;;;9.33;5.80;;;11.90;99.90;11.20;100557;;;;567786;251;24106;-81
2022/11/01 05:32:58;;;;;;;10.20;6.37;;;11.90;99.90;11.20;100559;;;;567917;253;24153;-75
2022/11/01 05:35:29;;;;;;;10.13;6.33;;;11.90;99.90;11.10;100552;;;;556104;253;24084;-79
2022/11/01 05:37:57;;;;;;;8.23;5.73;;;11.90;99.90;11.10;100553;;;;556229;253;24142;-76
2022/11/01 05:40:25;;;;;;;7.90;5.23;;;11.80;99.90;11.10;100550;;;;567960;251;24126;-82
2022/11/01 05:42:50;;;;;;;7.57;5.30;;;11.80;99.90;11.20;100536;;;;559531;253;24204;-77
2022/11/01 05:45:18;;;;;;;6.90;5.40;;;11.90;99.90;11.10;100524;;;;567836;253;24179;-77
2022/11/01 05:47:46;;;;;;;10.93;5.27;;;11.80;99.90;11.10;100539;;;;562339;253;24171;-77
2022/11/01 05:50:14;;;;;;;9.43;6.07;;;11.80;99.90;11.10;100557;;;;566212;252;24165;-77
2022/11/01 05:52:42;;;;;;;7.90;6.07;;;11.80;99.90;11.10;100550;;;;557666;253;24151;-78
2022/11/01 05:55:10;;;;;;;7.77;5.30;;;11.70;99.90;11.10;100539;;;;566025;247;24127;-78
2022/11/01 05:57:38;;;;;;;11.23;6.47;;;11.80;99.90;11.10;100548;;;;554735;253;24189;-76
2022/11/01 06:00:11;;;;;;;11.43;6.63;;;11.80;99.90;11.10;100538;;;;567241;252;24102;-79
2022/11/01 06:02:38;;;;;;;9.90;6.43;;;11.80;99.90;11.10;100539;;;;561851;250;24114;-80
2022/11/01 06:05:03;;;;;;;9.97;6.50;;;11.80;99.90;11.10;100541;;;;554565;253;24165;-80
2022/11/01 06:07:31;;;;;;;18.03;8.33;;;11.80;99.90;11.00;100538;;;;555157;253;24129;-80
2022/11/01 06:09:59;;;;;;;13.90;8.57;;;11.80;99.90;11.00;100546;;;;567078;252;24100;-78
2022/11/01 06:12:27;;;;;;;11.27;8.33;;;11.70;99.90;11.00;100550;;;;566977;252;24127;-77
2022/11/01 06:14:55;;;;;;;14.40;8.60;;;11.70;99.90;11.00;100557;;;;554950;253;24166;-75
2022/11/01 06:17:23;;;;;;;16.27;9.07;;;11.70;99.90;11.00;100551;;;;554633;253;24112;-80
2022/11/01 06:19:50;;;;;;;18.90;9.10;;;11.70;99.90;11.00;100551;;;;565917;253;24216;-80
2022/11/01 06:22:18;;;;;;;20.77;10.43;;;11.70;99.90;11.10;100553;;;;563708;250;24118;-81
2022/11/01 06:24:46;;;;;;;23.67;10.33;;;11.80;99.90;11.10;100552;;;;563659;249;24159;-81
2022/11/01 06:27:14;;;;;;;22.00;10.87;;;11.80;99.90;11.10;100551;;;;564729;251;24155;-81
2022/11/01 06:29:45;;;;;;;23.77;10.70;;;11.80;99.90;11.10;100536;;;;567378;251;24131;-81
2022/11/01 06:32:10;;;;;;;27.60;11.37;;;11.80;99.90;11.10;100539;;;;551857;255;24175;-81
2022/11/01 06:34:38;;;;;;;30.17;10.53;;;11.80;99.90;11.10;100545;;;;561500;251;24122;-79
2022/11/01 06:37:06;;;;;;;41.00;18.27;;;11.80;99.90;11.10;100541;;;;540888;259;35760;-80
2022/11/01 06:39:34;;;;;;;27.90;13.17;;;11.80;99.90;11.10;100541;;;;557144;258;24132;-81
2022/11/01 06:42:02;;;;;;;43.63;13.97;;;11.90;99.90;11.20;100544;;;;557117;258;24111;-82
2022/11/01 06:44:32;;;;;;;23.73;12.27;;;11.80;99.90;11.20;100542;;;;556633;258;24114;-82
2022/11/01 06:47:00;;;;;;;23.87;13.13;;;11.90;99.90;11.20;100546;;;;559140;254;24172;-82
2022/11/01 06:49:31;;;;;;;29.37;13.23;;;11.90;99.90;11.20;100543;;;;547339;254;24172;-82
2022/11/01 06:51:59;;;;;;;39.07;14.67;;;11.90;99.90;11.20;100545;;;;558970;251;24138;-81
2022/11/01 06:54:24;;;;;;;29.40;14.53;;;11.90;99.90;11.20;100538;;;;534484;264;24110;-82
2022/11/01 06:56:51;;;;;;;27.97;13.37;;;11.90;99.90;11.20;100535;;;;561937;251;24143;-79
2022/11/01 06:59:23;;;;;;;29.67;13.30;;;11.90;99.90;11.20;100535;;;;571365;251;24203;-81
2022/11/01 07:01:50;;;;;;;40.43;14.13;;;11.90;99.90;11.20;100537;;;;544405;257;24266;-79
2022/11/01 07:04:15;;;;;;;28.53;12.90;;;11.90;99.90;11.20;100529;;;;561431;255;24161;-80
2022/11/01 07:06:46;;;;;;;32.27;13.57;;;11.90;99.90;11.20;100523;;;;559668;255;24187;-83
2022/11/01 07:09:11;;;;;;;25.40;13.13;;;11.90;99.90;11.20;100517;;;;548743;254;24138;-84
2022/11/01 07:11:42;;;;;;;21.10;11.23;;;11.90;99.90;11.20;100515;;;;556568;251;24266;-82
2022/11/01 07:14:07;;;;;;;27.07;12.83;;;11.90;99.90;11.30;100518;;;;547855;256;24186;-82
2022/11/01 07:16:38;;;;;;;25.17;12.17;;;11.90;99.90;11.30;100512;;;;570870;248;24067;-81
2022/11/01 07:19:03;;;;;;;28.23;12.63;;;12.00;99.90;11.30;100503;;;;553834;255;24111;-83
2022/11/01 07:21:30;;;;;;;26.03;12.23;;;12.00;99.90;11.30;100515;;;;565532;250;24079;-82
2022/11/01 07:23:59;;;;;;;30.20;12.80;;;12.00;99.90;11.30;100518;;;;562908;251;24108;-82
2022/11/01 07:26:28;;;;;;;21.23;11.60;;;12.00;99.90;11.30;100516;;;;550866;256;25183;-82
2022/11/01 07:28:56;;;;;;;27.90;12.97;;;12.00;99.90;11.30;100513;;;;549573;259;24240;-83
2022/11/01 07:31:24;;;;;;;24.33;11.83;;;12.00;99.90;11.30;100516;;;;571465;248;24153;-82
2022/11/01 07:33:52;;;;;;;27.00;13.73;;;12.00;99.90;11.20;100504;;;;547685;257;24155;-82
2022/11/01 07:36:20;;;;;;;21.47;11.97;;;12.00;99.90;11.30;100518;;;;569193;249;24138;-81
2022/11/01 07:38:47;;;;;;;21.60;10.60;;;12.00;99.90;11.20;100506;;;;563409;254;24214;-80
2022/11/01 07:41:15;;;;;;;23.77;13.30;;;11.90;99.90;11.20;100505;;;;559714;251;24110;-80
2022/11/01 07:43:43;;;;;;;24.47;10.87;;;11.90;99.90;11.20;100498;;;;561058;255;24159;-81
2022/11/01 07:46:11;;;;;;;29.80;10.80;;;11.90;99.90;11.30;100488;;;;543873;257;24135;-81
2022/11/01 07:48:39;;;;;;;25.20;12.90;;;11.90;99.90;11.30;100495;;;;569840;249;24109;-82
2022/11/01 07:51:08;;;;;;;17.93;10.57;;;12.00;99.90;11.30;100486;;;;555925;248;24252;-82
2022/11/01 07:53:35;;;;;;;20.80;11.27;;;12.00;99.90;11.20;100490;;;;567574;244;24141;-83
2022/11/01 07:56:07;;;;;;;24.63;12.60;;;11.90;99.90;11.30;100478;;;;554268;252;24150;-83
2022/11/01 07:58:31;;;;;;;28.90;14.73;;;12.00;99.90;11.30;100485;;;;548307;255;24188;-83
2022/11/01 08:00:59;;;;;;;24.67;12.03;;;11.90;99.90;11.30;100489;;;;561065;251;24089;-83
2022/11/01 08:03:27;;;;;;;25.77;11.63;;;11.90;99.90;11.30;100478;;;;568738;248;24186;-81
2022/11/01 08:05:58;;;;;;;25.70;12.80;;;12.00;99.90;11.30;100476;;;;550919;253;24260;-81
2022/11/01 08:08:23;;;;;;;26.93;13.23;;;11.90;99.90;11.30;100465;;;;551963;255;24192;-81
2022/11/01 08:10:51;;;;;;;22.57;13.00;;;12.00;99.90;11.30;100464;;;;550652;257;24149;-83
2022/11/01 08:13:26;;;;;;;23.80;12.97;;;12.10;99.90;11.40;100466;;;;562004;251;24130;-85
2022/11/01 08:15:54;;;;;;;27.57;13.60;;;12.10;99.90;11.40;100455;;;;543441;260;24176;-84
2022/11/01 08:18:22;;;;;;;35.47;14.83;;;12.10;99.90;11.40;100452;;;;564193;254;24171;-84
2022/11/01 08:20:47;;;;;;;26.43;13.03;;;12.10;99.90;11.40;100453;;;;565875;254;24153;-84
2022/11/01 08:23:15;;;;;;;25.80;14.20;;;12.10;99.90;11.40;100450;;;;561759;251;24139;-83
2022/11/01 08:25:43;;;;;;;28.87;14.20;;;12.10;99.90;11.50;100455;;;;566036;254;24121;-81
2022/11/01 08:28:10;;;;;;;22.53;13.13;;;12.20;99.90;11.50;100460;;;;557119;252;24100;-82
2022/11/01 08:30:41;;;;;;;30.63;15.90;;;12.20;99.90;11.50;100473;;;;544397;260;24188;-83
2022/11/01 08:33:09;;;;;;;30.20;14.80;;;12.30;99.90;11.50;100477;;;;564229;254;24138;-83
2022/11/01 08:35:38;;;;;;;24.37;14.80;;;12.20;99.90;11.50;100479;;;;563179;253;24156;-83
2022/11/01 08:38:06;;;;;;;26.10;14.63;;;12.20;99.90;11.50;100463;;;;563960;255;24169;-84
2022/11/01 08:40:34;;;;;;;30.10;15.83;;;12.20;99.90;11.60;100468;;;;556902;254;24166;-83
2022/11/01 08:43:02;;;;;;;30.73;16.30;;;12.30;99.90;11.60;100470;;;;555900;255;24126;-83
2022/11/01 08:45:35;;;;;;;32.70;16.10;;;12.30;99.90;11.60;100471;;;;563257;250;24133;-83
2022/11/01 08:48:02;;;;;;;29.00;15.33;;;12.20;99.90;11.60;100470;;;;543844;259;24213;-83
2022/11/01 08:50:27;;;;;;;26.77;15.90;;;12.30;99.90;11.60;100504;;;;557592;252;24141;-84
2022/11/01 08:52:58;;;;;;;28.73;15.87;;;12.20;99.90;11.50;100517;;;;554759;254;24171;-85
2022/11/01 08:55:23;;;;;;;33.53;17.77;;;12.20;99.90;11.50;100528;;;;563584;251;24169;-85
2022/11/01 08:57:51;;;;;;;28.57;16.97;;;12.20;99.90;11.60;100525;;;;564363;251;24208;-84
2022/11/01 09:00:20;;;;;;;32.73;16.97;;;12.30;99.90;11.60;100516;;;;558358;255;24135;-84
2022/11/01 09:02:47;;;;;;;33.77;17.47;;;12.30;99.90;11.70;100539;;;;542576;261;24194;-85
2022/11/01 09:05:15;;;;;;;29.23;17.20;;;12.40;99.90;11.60;100536;;;;553695;259;24200;-84
2022/11/01 09:07:43;;;;;;;28.77;16.90;;;12.40;99.90;11.60;100534;;;;553509;255;24146;-85
2022/11/01 09:10:15;;;;;;;29.73;16.03;;;12.40;99.90;11.60;100526;;;;542628;259;24146;-85
2022/11/01 09:12:39;;;;;;;28.97;16.47;;;12.30;99.90;11.60;100526;;;;542209;259;24149;-87
2022/11/01 09:15:10;;;;;;;26.67;15.27;;;12.30;99.90;11.60;100527;;;;542807;259;24141;-84
2022/11/01 09:17:35;;;;;;;29.97;16.60;;;12.30;99.90;11.60;100524;;;;552443;259;24157;-85
2022/11/01 09:20:09;;;;;;;31.40;16.87;;;12.30;99.90;11.70;100536;;;;565635;249;24136;-86
2022/11/01 09:22:36;;;;;;;27.83;15.30;;;12.40;99.90;11.70;100522;;;;564053;249;24088;-83
2022/11/01 09:25:01;;;;;;;29.40;17.23;;;12.40;99.90;11.70;100526;;;;564197;249;24129;-80
2022/11/01 09:27:29;;;;;;;27.67;15.07;;;12.40;99.90;11.80;100523;;;;558187;252;24130;-81
2022/11/01 09:29:57;;;;;;;27.30;15.33;;;12.50;99.90;11.80;100521;;;;555732;255;24219;-79
2022/11/01 09:32:29;;;;;;;32.20;17.77;;;12.50;99.90;11.90;100511;;;;563718;253;24111;-79
2022/11/01 09:34:57;;;;;;;27.23;14.17;;;12.60;99.90;12.00;100515;;;;572211;249;24138;-78
2022/11/01 09:37:25;;;;;;;28.83;15.10;;;12.60;99.90;12.00;100506;;;;566350;252;24161;-80
2022/11/01 09:39:53;;;;;;;25.07;13.97;;;12.60;99.90;12.00;100505;;;;566734;249;24147;-79
2022/11/01 09:42:20;;;;;;;28.13;14.83;;;12.60;99.90;11.90;100501;;;;567373;250;24101;-79
2022/11/01 09:44:48;;;;;;;25.93;15.10;;;12.60;99.90;11.90;100495;;;;559243;254;24165;-81
2022/11/01 09:47:16;;;;;;;22.17;14.80;;;12.60;99.90;11.90;100511;;;;544564;259;24166;-81
2022/11/01 09:49:44;;;;;;;29.43;16.47;;;12.60;99.90;11.90;100516;;;;552389;259;24252;-79
2022/11/01 09:52:21;;;;;;;23.23;14.50;;;12.60;99.90;12.00;100516;;;;552035;255;24199;-80
2022/11/01 09:54:53;;;;;;;28.23;16.50;;;12.70;99.90;12.10;100501;;;;566826;251;24168;-82
2022/11/01 09:57:32;;;;;;;32.67;16.10;;;12.80;99.90;12.10;100492;;;;559598;255;24114;-79
2022/11/01 10:00:18;;;;;;;28.47;17.33;;;12.80;99.90;12.20;100479;;;;566307;251;24107;-81
2022/11/01 10:03:01;;;;;;;29.07;16.63;;;12.90;99.90;12.20;100490;;;;567460;251;24084;-79
2022/11/01 10:05:51;;;;;;;31.27;17.33;;;12.90;99.90;12.20;100479;;;;559453;252;24090;-80
2022/11/01 10:08:27;;;;;;;31.13;17.17;;;12.90;99.90;12.30;100476;;;;571835;251;24181;-81
2022/11/01 10:11:28;;;;;;;29.23;16.70;;;13.00;99.90;12.30;100476;;;;559418;250;24124;-81
2022/11/01 10:14:06;;;;;;;28.00;17.37;;;13.10;99.90;12.50;100470;;;;571372;251;24144;-80
2022/11/01 10:16:40;;;;;;;33.43;17.40;;;13.10;99.90;12.50;100476;;;;559437;250;24098;-81
2022/11/01 10:19:20;;;;;;;30.77;17.90;;;13.20;99.90;12.60;100470;;;;571404;251;24101;-81
2022/11/01 10:21:53;;;;;;;30.37;18.33;;;13.30;99.90;12.70;100465;;;;558962;250;24115;-82
2022/11/01 10:24:39;;;;;;;34.70;18.70;;;13.40;99.90;12.70;100475;;;;562950;252;24211;-82
2022/11/01 10:27:18;;;;;;;29.20;19.57;;;13.40;99.90;12.80;100465;;;;558832;250;24102;-84
2022/11/01 10:29:55;;;;;;;31.07;18.07;;;13.50;99.90;12.80;100460;;;;558795;250;24066;-82
2022/11/01 10:32:26;;;;;;;27.37;18.27;;;13.60;99.90;12.80;100462;;;;557943;252;24148;-84
2022/11/01 10:34:57;;;;;;;27.50;18.50;;;13.60;99.90;12.80;100455;;;;559496;251;24212;-83
2022/11/01 10:37:28;;;;;;;23.20;16.23;;;13.50;99.90;12.90;100456;;;;570679;248;24122;-81
2022/11/01 10:40:05;;;;;;;23.83;17.40;;;13.60;99.90;12.90;100448;;;;550973;258;24141;-80
2022/11/01 10:42:30;;;;;;;27.27;16.80;;;13.50;99.90;12.80;100453;;;;544307;258;24170;-82
2022/11/01 10:45:02;;;;;;;27.07;16.17;;;13.50;99.90;12.80;100454;;;;549313;258;24152;-80
2022/11/01 10:47:32;;;;;;;25.90;16.97;;;13.50;99.90;12.80;100450;;;;544725;257;24056;-83
2022/11/01 10:49:59;;;;;;;24.97;17.67;;;13.40;99.90;12.70;100442;;;;561283;254;24078;-82
2022/11/01 10:52:27;;;;;;;28.17;16.90;;;13.50;99.90;12.70;100441;;;;560111;251;24147;-81
2022/11/01 10:54:58;;;;;;;29.30;16.20;;;13.40;99.90;12.70;100443;;;;568384;250;24065;-78
2022/11/01 10:57:38;;;;;;;25.83;16.73;;;13.40;99.90;12.70;100443;;;;570115;248;24190;-79
2022/11/01 11:00:10;;;;;;;24.33;15.10;;;13.40;99.90;12.70;100451;;;;563445;251;24086;-80
2022/11/01 11:02:34;;;;;;;23.93;15.37;;;13.40;99.90;12.70;100449;;;;562177;251;24063;-81
2022/11/01 11:05:03;;;;;;;23.40;14.13;;;13.40;99.90;12.70;100448;;;;560750;250;24035;-79
2022/11/01 11:07:34;;;;;;;20.50;14.10;;;13.40;99.90;12.60;100469;;;;564463;250;24164;-81
2022/11/01 11:09:59;;;;;;;22.93;14.50;;;13.40;99.90;12.60;100463;;;;562670;251;24077;-80
2022/11/01 11:12:27;;;;;;;25.30;15.23;;;13.40;99.90;12.60;100465;;;;561974;250;24103;-79
2022/11/01 11:15:05;;;;;;;21.23;14.17;;;13.30;99.90;12.60;100467;;;;567990;249;24089;-79
2022/11/01 11:17:35;;;;;;;22.80;13.93;;;13.30;99.90;12.60;100475;;;;557556;256;24302;-78
2022/11/01 11:20:07;;;;;;;18.77;13.60;;;13.30;99.90;12.50;100470;;;;559381;250;24125;-80
2022/11/01 11:22:31;;;;;;;23.67;14.20;;;13.20;99.90;12.50;100476;;;;553542;255;24161;-78
2022/11/01 11:24:59;;;;;;;20.27;13.77;;;13.20;99.90;12.50;100464;;;;546388;259;24188;-79
2022/11/01 11:27:34;;;;;;;18.33;13.43;;;13.20;99.90;12.50;100466;;;;554623;255;24132;-79